Time,TemperatureF,DewpointF,PressureIn,WindDirection,WindDirectionDegrees,WindSpeedMPH,WindSpeedGustMPH,Humidity,HourlyPrecipIn,Conditions,Clouds,dailyrainin,SoftwareType,DateUTC
2013-01-03 00:00:00,10.0,5.1,30.17,North,0,8.0,8.0,80,0.00,,,0.00,Wunderground v.1.15,2013-01-03 06:00:00,
2013-01-03 00:10:00,10.0,5.1,30.17,NNW,335,10.0,11.0,80,0.00,,,0.00,Wunderground v.1.15,2013-01-03 06:10:00,
2013-01-03 00:20:00,9.9,5.0,30.18,NNW,330,9.0,9.0,80,0.00,,,0.00,Wunderground v.1.15,2013-01-03 06:20:00,
2013-01-03 00:30:00,9.5,4.3,30.18,North,349,9.0,9.0,79,0.00,,,0.00,Wunderground v.1.15,2013-01-03 06:30:00,
2013-01-03 00:40:00,9.0,3.8,30.18,North,0,9.0,10.0,79,0.00,,,0.00,Wunderground v.1.15,2013-01-03 06:40:00,
2013-01-03 00:50:00,8.8,3.9,30.18,North,354,10.0,10.0,80,0.00,,,0.00,Wunderground v.1.15,2013-01-03 06:50:00,
2013-01-03 00:55:00,8.6,3.7,30.18,NNW,330,10.0,10.0,80,0.00,,,0.00,Wunderground v.1.15,2013-01-03 06:55:00,
2013-01-03 01:00:00,8.6,3.7,30.18,NW,306,9.0,9.0,80,0.00,,,0.00,Wunderground v.1.15,2013-01-03 07:00:00,
2013-01-03 01:10:00,8.4,3.5,30.18,NNW,344,9.0,9.0,80,0.00,,,0.00,Wunderground v.1.15,2013-01-03 07:10:00,
2013-01-03 01:15:00,8.4,3.5,30.18,North,0,9.0,9.0,80,0.00,,,0.00,Wunderground v.1.15,2013-01-03 07:15:00,
2013-01-03 01:25:00,8.1,3.2,30.18,North,359,10.0,10.0,80,0.00,,,0.00,Wunderground v.1.15,2013-01-03 07:25:00,
2013-01-03 01:35:00,7.7,2.8,30.19,NNW,329,10.0,10.0,80,0.00,,,0.00,Wunderground v.1.15,2013-01-03 07:35:00,
2013-01-03 01:45:00,7.6,2.7,30.19,North,350,10.0,10.0,80,0.00,,,0.00,Wunderground v.1.15,2013-01-03 07:45:00,
2013-01-03 01:55:00,7.4,2.5,30.19,North,352,9.0,10.0,80,0.00,,,0.00,Wunderground v.1.15,2013-01-03 07:55:00,
2013-01-03 02:05:00,7.4,2.8,30.20,NNW,339,9.0,9.0,81,0.00,,,0.00,Wunderground v.1.15,2013-01-03 08:05:00,
2013-01-03 02:15:00,7.2,2.3,30.21,NNW,343,9.0,9.0,80,0.00,,,0.00,Wunderground v.1.15,2013-01-03 08:15:00,
2013-01-03 02:25:00,7.0,2.1,30.21,North,0,8.0,13.0,80,0.00,,,0.00,Wunderground v.1.15,2013-01-03 08:25:00,
2013-01-03 02:35:00,6.7,2.1,30.21,NNW,339,10.0,10.0,81,0.00,,,0.00,Wunderground v.1.15,2013-01-03 08:35:00,
2013-01-03 02:45:00,6.3,1.7,30.22,NNW,329,9.0,10.0,81,0.00,,,0.00,Wunderground v.1.15,2013-01-03 08:45:00,
2013-01-03 02:50:00,6.1,1.5,30.22,North,0,7.0,8.0,81,0.00,,,0.00,Wunderground v.1.15,2013-01-03 08:50:00,
2013-01-03 03:00:00,6.0,1.4,30.23,NNW,336,9.0,9.0,81,0.00,,,0.00,Wunderground v.1.15,2013-01-03 09:00:00,
2013-01-03 03:10:00,5.8,1.2,30.23,NNW,344,9.0,9.0,81,0.00,,,0.00,Wunderground v.1.15,2013-01-03 09:10:00,
2013-01-03 03:20:00,5.6,1.0,30.22,NNW,332,9.0,9.0,81,0.00,,,0.00,Wunderground v.1.15,2013-01-03 09:20:00,
2013-01-03 03:30:00,5.4,0.6,30.22,NNW,347,9.0,11.0,80,0.00,,,0.00,Wunderground v.1.15,2013-01-03 09:30:00,
2013-01-03 03:40:00,4.8,0.0,30.22,NW,323,11.0,11.0,80,0.00,,,0.00,Wunderground v.1.15,2013-01-03 09:40:00,
2013-01-03 03:45:00,4.7,-0.1,30.23,North,350,10.0,11.0,80,0.00,,,0.00,Wunderground v.1.15,2013-01-03 09:45:00,
2013-01-03 03:55:00,3.9,-1.2,30.23,NNW,342,10.0,11.0,79,0.00,,,0.00,Wunderground v.1.15,2013-01-03 09:55:00,
2013-01-03 04:05:00,3.5,-1.6,30.24,NW,323,8.0,9.0,79,0.00,,,0.00,Wunderground v.1.15,2013-01-03 10:05:00,
2013-01-03 04:15:00,3.2,-1.8,30.24,North,356,9.0,10.0,79,0.00,,,0.00,Wunderground v.1.15,2013-01-03 10:15:00,
2013-01-03 04:25:00,3.0,-2.0,30.24,North,354,9.0,9.0,79,0.00,,,0.00,Wunderground v.1.15,2013-01-03 10:25:00,
2013-01-03 04:35:00,2.8,-2.2,30.25,NNW,346,9.0,9.0,79,0.00,,,0.00,Wunderground v.1.15,2013-01-03 10:35:00,
2013-01-03 04:45:00,2.6,-2.4,30.25,North,350,8.0,9.0,79,0.00,,,0.00,Wunderground v.1.15,2013-01-03 10:45:00,
2013-01-03 04:55:00,2.4,-2.4,30.25,North,350,8.0,11.0,80,0.00,,,0.00,Wunderground v.1.15,2013-01-03 10:55:00,
2013-01-03 05:05:00,2.2,-2.6,30.25,North,0,9.0,9.0,80,0.00,,,0.00,Wunderground v.1.15,2013-01-03 11:05:00,
2013-01-03 05:10:00,2.2,-2.6,30.25,NNW,328,9.0,10.0,80,0.00,,,0.00,Wunderground v.1.15,2013-01-03 11:10:00,
2013-01-03 05:15:00,2.2,-2.6,30.26,NNW,337,9.0,10.0,80,0.00,,,0.00,Wunderground v.1.15,2013-01-03 11:15:00,
2013-01-03 05:25:00,2.2,-2.6,30.26,NNW,342,10.0,13.0,80,0.00,,,0.00,Wunderground v.1.15,2013-01-03 11:25:00,
2013-01-03 05:30:00,2.2,-2.6,30.27,NNW,339,10.0,10.0,80,0.00,,,0.00,Wunderground v.1.15,2013-01-03 11:30:00,
2013-01-03 05:40:00,2.2,-2.6,30.27,North,356,8.0,9.0,80,0.00,,,0.00,Wunderground v.1.15,2013-01-03 11:40:00,
2013-01-03 05:50:00,2.0,-3.0,30.27,NNW,346,9.0,9.0,79,0.00,,,0.00,Wunderground v.1.15,2013-01-03 11:50:00,
2013-01-03 05:55:00,2.0,-3.0,30.27,NNW,335,9.0,9.0,79,0.00,,,0.00,Wunderground v.1.15,2013-01-03 11:55:00,
2013-01-03 06:05:00,1.8,-3.2,30.28,North,354,9.0,9.0,79,0.00,,,0.00,Wunderground v.1.15,2013-01-03 12:05:00,
2013-01-03 06:15:00,1.7,-3.3,30.29,NW,320,7.0,8.0,79,0.00,,,0.00,Wunderground v.1.15,2013-01-03 12:15:00,
2013-01-03 06:25:00,1.3,-3.7,30.29,NNW,343,6.0,7.0,79,0.00,,,0.00,Wunderground v.1.15,2013-01-03 12:25:00,
2013-01-03 06:35:00,1.1,-3.9,30.29,NNW,340,6.0,7.0,79,0.00,,,0.00,Wunderground v.1.15,2013-01-03 12:35:00,
2013-01-03 06:45:00,1.1,-3.6,30.29,North,359,6.0,8.0,80,0.00,,,0.00,Wunderground v.1.15,2013-01-03 12:45:00,
2013-01-03 06:55:00,1.1,-3.6,30.29,NNW,346,5.0,7.0,80,0.00,,,0.00,Wunderground v.1.15,2013-01-03 12:55:00,
2013-01-03 07:00:00,0.9,-3.8,30.29,NNW,335,5.0,5.0,80,0.00,,,0.00,Wunderground v.1.15,2013-01-03 13:00:00,
2013-01-03 07:10:00,0.5,-4.2,30.29,North,356,4.0,4.0,80,0.00,,,0.00,Wunderground v.1.15,2013-01-03 13:10:00,
2013-01-03 07:20:00,0.3,-4.4,30.30,North,349,3.0,3.0,80,0.00,,,0.00,Wunderground v.1.15,2013-01-03 13:20:00,
2013-01-03 07:25:00,0.1,-4.6,30.30,NNW,337,2.0,3.0,80,0.00,,,0.00,Wunderground v.1.15,2013-01-03 13:25:00,
2013-01-03 07:30:00,0.0,-4.4,30.30,NW,322,1.0,2.0,81,0.00,,,0.00,Wunderground v.1.15,2013-01-03 13:30:00,
2013-01-03 07:40:00,0.0,-4.4,30.30,NNW,335,2.0,4.0,81,0.00,,,0.00,Wunderground v.1.15,2013-01-03 13:40:00,
2013-01-03 07:50:00,0.1,-4.3,30.31,NW,326,3.0,3.0,81,0.00,,,0.00,Wunderground v.1.15,2013-01-03 13:50:00,
2013-01-03 07:55:00,0.1,-4.3,30.31,NW,319,2.0,3.0,81,0.00,,,0.00,Wunderground v.1.15,2013-01-03 13:55:00,
2013-01-03 08:05:00,0.1,-4.3,30.31,NW,316,0.0,1.0,81,0.00,,,0.00,Wunderground v.1.15,2013-01-03 14:05:00,
2013-01-03 08:15:00,0.0,-4.4,30.32,NW,316,0.0,0.0,81,0.00,,,0.00,Wunderground v.1.15,2013-01-03 14:15:00,
2013-01-03 08:25:00,0.0,-4.4,30.32,NW,316,0.0,0.0,81,0.00,,,0.00,Wunderground v.1.15,2013-01-03 14:25:00,
2013-01-03 08:30:00,0.0,-4.4,30.32,NW,316,0.0,0.0,81,0.00,,,0.00,Wunderground v.1.15,2013-01-03 14:30:00,
2013-01-03 08:40:00,0.1,-4.1,30.32,NW,316,0.0,0.0,82,0.00,,,0.00,Wunderground v.1.15,2013-01-03 14:40:00,
2013-01-03 08:45:00,0.3,-3.9,30.33,NW,316,0.0,1.0,82,0.00,,,0.00,Wunderground v.1.15,2013-01-03 14:45:00,
2013-01-03 08:55:00,0.9,-3.3,30.33,NW,315,0.0,0.0,82,0.00,,,0.00,Wunderground v.1.15,2013-01-03 14:55:00,
2013-01-03 09:00:00,1.1,-3.1,30.33,NW,315,0.0,0.0,82,0.00,,,0.00,Wunderground v.1.15,2013-01-03 15:00:00,
2013-01-03 09:10:00,1.7,-2.8,30.33,NNW,328,1.0,1.0,81,0.00,,,0.00,Wunderground v.1.15,2013-01-03 15:10:00,
2013-01-03 09:20:00,2.6,-1.9,30.34,NNW,328,4.0,7.0,81,0.00,,,0.00,Wunderground v.1.15,2013-01-03 15:20:00,
2013-01-03 09:30:00,3.2,-1.6,30.33,NNW,344,6.0,6.0,80,0.00,,,0.00,Wunderground v.1.15,2013-01-03 15:30:00,
2013-01-03 09:40:00,3.7,-1.4,30.33,North,352,6.0,7.0,79,0.00,,,0.00,Wunderground v.1.15,2013-01-03 15:40:00,
2013-01-03 09:50:00,4.3,-0.8,30.34,NNW,343,4.0,6.0,79,0.00,,,0.00,Wunderground v.1.15,2013-01-03 15:50:00,
2013-01-03 10:00:00,4.7,-0.7,30.34,NW,323,7.0,7.0,78,0.00,,,0.00,Wunderground v.1.15,2013-01-03 16:00:00,
2013-01-03 10:10:00,5.2,-0.4,30.34,NNW,337,8.0,10.0,77,0.00,,,0.00,Wunderground v.1.15,2013-01-03 16:10:00,
2013-01-03 10:15:00,5.6,-0.1,30.34,North,350,8.0,10.0,77,0.00,,,0.00,Wunderground v.1.15,2013-01-03 16:15:00,
2013-01-03 10:25:00,6.3,0.6,30.34,North,350,7.0,8.0,77,0.00,,,0.00,Wunderground v.1.15,2013-01-03 16:25:00,
2013-01-03 10:35:00,7.4,1.4,30.34,North,349,5.0,8.0,76,0.00,,,0.00,Wunderground v.1.15,2013-01-03 16:35:00,
2013-01-03 10:45:00,7.7,1.1,30.34,NNW,330,2.0,4.0,74,0.00,,,0.00,Wunderground v.1.15,2013-01-03 16:45:00,
2013-01-03 10:55:00,7.6,1.0,30.34,West,267,1.0,2.0,74,0.00,,,0.00,Wunderground v.1.15,2013-01-03 16:55:00,
2013-01-03 11:05:00,7.9,1.0,30.33,West,267,1.0,2.0,73,0.00,,,0.00,Wunderground v.1.15,2013-01-03 17:05:00,
2013-01-03 11:15:00,8.4,1.8,30.33,NW,309,1.0,1.0,74,0.00,,,0.00,Wunderground v.1.15,2013-01-03 17:15:00,
2013-01-03 11:25:00,8.6,1.7,30.33,WNW,289,1.0,1.0,73,0.00,,,0.00,Wunderground v.1.15,2013-01-03 17:25:00,
2013-01-03 11:30:00,9.0,2.4,30.33,WNW,282,1.0,4.0,74,0.00,,,0.00,Wunderground v.1.15,2013-01-03 17:30:00,
2013-01-03 11:40:00,9.0,2.1,30.33,West,268,3.0,3.0,73,0.00,,,0.00,Wunderground v.1.15,2013-01-03 17:40:00,
2013-01-03 11:45:00,9.3,2.7,30.32,West,270,3.0,3.0,74,0.00,,,0.00,Wunderground v.1.15,2013-01-03 17:45:00,
2013-01-03 11:55:00,9.7,2.8,30.32,West,260,2.0,2.0,73,0.00,,,0.00,Wunderground v.1.15,2013-01-03 17:55:00,
2013-01-03 12:05:00,9.9,3.3,30.32,West,272,2.0,3.0,74,0.00,,,0.00,Wunderground v.1.15,2013-01-03 18:05:00,
2013-01-03 12:10:00,9.9,3.0,30.32,West,270,1.0,2.0,73,0.00,,,0.00,Wunderground v.1.15,2013-01-03 18:10:00,
2013-01-03 12:15:00,9.9,3.0,30.30,West,270,1.0,2.0,73,0.00,,,0.00,Wunderground v.1.15,2013-01-03 18:15:00,
2013-01-03 12:25:00,9.9,3.3,30.30,West,271,2.0,2.0,74,0.00,,,0.00,Wunderground v.1.15,2013-01-03 18:25:00,
2013-01-03 12:35:00,10.2,3.3,30.30,West,265,1.0,2.0,73,0.00,,,0.00,Wunderground v.1.15,2013-01-03 18:35:00,
2013-01-03 12:40:00,9.7,2.5,30.30,WSW,254,2.0,2.0,72,0.00,,,0.00,Wunderground v.1.15,2013-01-03 18:40:00,
2013-01-03 12:45:00,9.7,2.8,30.29,WSW,253,2.0,4.0,73,0.00,,,0.00,Wunderground v.1.15,2013-01-03 18:45:00,
2013-01-03 12:55:00,9.9,2.7,30.29,WSW,257,1.0,2.0,72,0.00,,,0.00,Wunderground v.1.15,2013-01-03 18:55:00,
2013-01-03 13:00:00,9.7,2.5,30.29,WSW,258,2.0,4.0,72,0.00,,,0.00,Wunderground v.1.15,2013-01-03 19:00:00,
2013-01-03 13:10:00,9.5,2.3,30.29,West,263,2.0,2.0,72,0.00,,,0.00,Wunderground v.1.15,2013-01-03 19:10:00,
2013-01-03 14:00:00,9.5,2.9,30.29,WSW,257,3.0,4.0,74,0.00,,,0.00,Wunderground v.1.15,2013-01-03 20:00:00,
2013-01-03 14:10:00,9.9,3.3,30.29,West,263,2.0,2.0,74,0.00,,,0.00,Wunderground v.1.15,2013-01-03 20:10:00,
2013-01-03 14:15:00,9.7,3.1,30.29,WSW,253,2.0,7.0,74,0.00,,,0.00,Wunderground v.1.15,2013-01-03 20:15:00,
2013-01-03 14:25:00,9.3,3.3,30.29,SW,234,4.0,4.0,76,0.00,,,0.00,Wunderground v.1.15,2013-01-03 20:25:00,
2013-01-03 14:30:00,9.5,3.5,30.28,WSW,246,3.0,4.0,76,0.00,,,0.00,Wunderground v.1.15,2013-01-03 20:30:00,
2013-01-03 14:40:00,10.2,4.1,30.28,WSW,247,3.0,3.0,76,0.00,,,0.00,Wunderground v.1.15,2013-01-03 20:40:00,
2013-01-03 14:45:00,10.4,4.3,30.28,WSW,253,2.0,3.0,76,0.00,,,0.00,Wunderground v.1.15,2013-01-03 20:45:00,
2013-01-03 14:55:00,11.1,5.0,30.28,SW,217,2.0,2.0,76,0.00,,,0.00,Wunderground v.1.15,2013-01-03 20:55:00,
2013-01-03 15:05:00,11.4,5.0,30.27,WSW,247,2.0,3.0,75,0.00,,,0.00,Wunderground v.1.15,2013-01-03 21:05:00,
2013-01-03 15:15:00,11.7,5.3,30.28,WSW,254,2.0,2.0,75,0.00,,,0.00,Wunderground v.1.15,2013-01-03 21:15:00,
2013-01-03 15:25:00,11.6,5.8,30.28,WSW,240,2.0,6.0,77,0.00,,,0.00,Wunderground v.1.15,2013-01-03 21:25:00,
2013-01-03 15:30:00,11.9,6.1,30.27,WSW,254,3.0,3.0,77,0.00,,,0.00,Wunderground v.1.15,2013-01-03 21:30:00,
2013-01-03 15:40:00,12.3,6.5,30.27,WSW,248,2.0,2.0,77,0.00,,,0.00,Wunderground v.1.15,2013-01-03 21:40:00,
2013-01-03 15:50:00,12.3,6.5,30.26,SW,233,2.0,4.0,77,0.00,,,0.00,Wunderground v.1.15,2013-01-03 21:50:00,
2013-01-03 16:00:00,12.3,6.7,30.26,WSW,247,2.0,2.0,78,0.00,,,0.00,Wunderground v.1.15,2013-01-03 22:00:00,
2013-01-03 16:10:00,12.3,6.7,30.26,SW,232,1.0,1.0,78,0.00,,,0.00,Wunderground v.1.15,2013-01-03 22:10:00,
2013-01-03 16:15:00,12.1,6.6,30.27,SW,233,1.0,2.0,78,0.00,,,0.00,Wunderground v.1.15,2013-01-03 22:15:00,
2013-01-03 16:25:00,11.9,6.6,30.27,SW,230,1.0,2.0,79,0.00,,,0.00,Wunderground v.1.15,2013-01-03 22:25:00,
2013-01-03 16:30:00,11.7,6.4,30.27,SW,230,1.0,1.0,79,0.00,,,0.00,Wunderground v.1.15,2013-01-03 22:30:00,
2013-01-03 16:40:00,11.4,6.2,30.27,SW,230,1.0,1.0,79,0.00,,,0.00,Wunderground v.1.15,2013-01-03 22:40:00,
2013-01-03 16:45:00,11.2,6.0,30.27,SW,230,0.0,1.0,79,0.00,,,0.00,Wunderground v.1.15,2013-01-03 22:45:00,
2013-01-03 16:55:00,11.1,6.1,30.27,SW,230,1.0,1.0,80,0.00,,,0.00,Wunderground v.1.15,2013-01-03 22:55:00,
2013-01-03 17:05:00,10.9,6.2,30.26,SW,232,1.0,1.0,81,0.00,,,0.00,Wunderground v.1.15,2013-01-03 23:05:00,
2013-01-03 17:15:00,10.9,6.5,30.26,SW,232,1.0,1.0,82,0.00,,,0.00,Wunderground v.1.15,2013-01-03 23:15:00,
2013-01-03 17:25:00,10.9,6.8,30.26,SW,232,1.0,1.0,83,0.00,,,0.00,Wunderground v.1.15,2013-01-03 23:25:00,
2013-01-03 17:30:00,10.9,6.8,30.25,SW,229,1.0,1.0,83,0.00,,,0.00,Wunderground v.1.15,2013-01-03 23:30:00,
2013-01-03 17:40:00,10.9,6.8,30.25,SW,229,1.0,1.0,83,0.00,,,0.00,Wunderground v.1.15,2013-01-03 23:40:00,
2013-01-03 17:50:00,11.1,7.2,30.25,SW,227,1.0,1.0,84,0.00,,,0.00,Wunderground v.1.15,2013-01-03 23:50:00,
2013-01-03 18:00:00,11.2,7.3,30.24,SW,227,1.0,2.0,84,0.00,,,0.00,Wunderground v.1.15,2013-01-04 00:00:00,
2013-01-03 18:10:00,11.6,8.0,30.24,SW,233,2.0,2.0,85,0.00,,,0.00,Wunderground v.1.15,2013-01-04 00:10:00,
2013-01-03 18:15:00,12.1,8.5,30.23,SW,223,2.0,4.0,85,0.00,,,0.00,Wunderground v.1.15,2013-01-04 00:15:00,
2013-01-03 18:25:00,12.8,9.1,30.23,SW,232,3.0,3.0,85,0.00,,,0.00,Wunderground v.1.15,2013-01-04 00:25:00,
2013-01-03 18:30:00,13.1,9.4,30.22,SW,227,3.0,6.0,85,0.00,,,0.00,Wunderground v.1.15,2013-01-04 00:30:00,
2013-01-03 18:40:00,13.6,9.9,30.22,SW,226,3.0,7.0,85,0.00,,,0.00,Wunderground v.1.15,2013-01-04 00:40:00,
2013-01-03 18:50:00,14.1,10.4,30.21,West,268,4.0,9.0,85,0.00,,,0.00,Wunderground v.1.15,2013-01-04 00:50:00,
2013-01-03 18:55:00,14.3,10.6,30.21,WSW,239,4.0,9.0,85,0.00,,,0.00,Wunderground v.1.15,2013-01-04 00:55:00,
2013-01-03 19:00:00,14.4,10.7,30.20,SW,232,5.0,7.0,85,0.00,,,0.00,Wunderground v.1.15,2013-01-04 01:00:00,
2013-01-03 19:10:00,14.4,10.7,30.20,SW,229,4.0,4.0,85,0.00,,,0.00,Wunderground v.1.15,2013-01-04 01:10:00,
2013-01-03 19:15:00,14.4,10.7,30.20,WSW,239,4.0,4.0,85,0.00,,,0.00,Wunderground v.1.15,2013-01-04 01:15:00,
2013-01-03 19:25:00,14.3,10.6,30.20,SW,229,4.0,6.0,85,0.00,,,0.00,Wunderground v.1.15,2013-01-04 01:25:00,
2013-01-03 19:35:00,14.4,10.7,30.19,SW,236,4.0,4.0,85,0.00,,,0.00,Wunderground v.1.15,2013-01-04 01:35:00,
2013-01-03 19:45:00,14.0,10.3,30.18,SW,227,5.0,6.0,85,0.00,,,0.00,Wunderground v.1.15,2013-01-04 01:45:00,
2013-01-03 19:55:00,13.5,9.8,30.18,SW,229,5.0,6.0,85,0.00,,,0.00,Wunderground v.1.15,2013-01-04 01:55:00,
2013-01-03 20:05:00,13.1,9.4,30.19,SW,223,4.0,6.0,85,0.00,,,0.00,Wunderground v.1.15,2013-01-04 02:05:00,
2013-01-03 20:15:00,12.9,9.5,30.17,SW,226,3.0,3.0,86,0.00,,,0.00,Wunderground v.1.15,2013-01-04 02:15:00,
2013-01-03 20:25:00,12.9,9.5,30.17,SW,223,3.0,4.0,86,0.00,,,0.00,Wunderground v.1.15,2013-01-04 02:25:00,
2013-01-03 20:30:00,12.9,9.5,30.17,SW,224,3.0,3.0,86,0.00,,,0.00,Wunderground v.1.15,2013-01-04 02:30:00,
2013-01-03 20:40:00,12.9,9.5,30.17,SSW,212,2.0,2.0,86,0.00,,,0.00,Wunderground v.1.15,2013-01-04 02:40:00,
2013-01-03 20:45:00,12.9,9.8,30.16,SW,234,3.0,6.0,87,0.00,,,0.00,Wunderground v.1.15,2013-01-04 02:45:00,
2013-01-03 20:55:00,13.3,10.2,30.16,SW,229,5.0,5.0,87,0.00,,,0.00,Wunderground v.1.15,2013-01-04 02:55:00,
2013-01-03 21:00:00,13.5,10.4,30.15,SW,233,4.0,8.0,87,0.00,,,0.00,Wunderground v.1.15,2013-01-04 03:00:00,
2013-01-03 21:10:00,14.0,10.8,30.15,WSW,247,4.0,4.0,87,0.00,,,0.00,Wunderground v.1.15,2013-01-04 03:10:00,
2013-01-03 21:20:00,14.6,11.4,30.14,WSW,246,4.0,4.0,87,0.00,,,0.00,Wunderground v.1.15,2013-01-04 03:20:00,
2013-01-03 21:25:00,14.8,11.6,30.14,WSW,241,5.0,5.0,87,0.00,,,0.00,Wunderground v.1.15,2013-01-04 03:25:00,
2013-01-03 21:35:00,14.8,11.4,30.14,WSW,239,4.0,5.0,86,0.00,,,0.00,Wunderground v.1.15,2013-01-04 03:35:00,
2013-01-03 21:45:00,14.8,11.4,30.14,SW,230,4.0,4.0,86,0.00,,,0.00,Wunderground v.1.15,2013-01-04 03:45:00,
2013-01-03 21:55:00,14.6,11.2,30.14,SW,234,3.0,6.0,86,0.00,,,0.00,Wunderground v.1.15,2013-01-04 03:55:00,
2013-01-03 22:05:00,14.6,11.2,30.13,WSW,244,5.0,5.0,86,0.00,,,0.00,Wunderground v.1.15,2013-01-04 04:05:00,
2013-01-03 22:10:00,14.6,11.2,30.13,SW,229,4.0,4.0,86,0.00,,,0.00,Wunderground v.1.15,2013-01-04 04:10:00,
2013-01-03 22:20:00,14.6,11.2,30.13,WSW,239,4.0,4.0,86,0.00,,,0.00,Wunderground v.1.15,2013-01-04 04:20:00,
2013-01-03 22:30:00,14.4,11.0,30.12,WSW,239,3.0,4.0,86,0.00,,,0.00,Wunderground v.1.15,2013-01-04 04:30:00,
2013-01-03 22:40:00,14.4,11.0,30.12,SW,227,5.0,5.0,86,0.00,,,0.00,Wunderground v.1.15,2013-01-04 04:40:00,
2013-01-03 22:45:00,14.6,11.2,30.11,SW,227,5.0,5.0,86,0.00,,,0.00,Wunderground v.1.15,2013-01-04 04:45:00,
2013-01-03 22:55:00,14.8,11.4,30.11,SW,223,5.0,6.0,86,0.00,,,0.00,Wunderground v.1.15,2013-01-04 04:55:00,
2013-01-03 23:05:00,15.4,12.0,30.10,SW,230,4.0,6.0,86,0.00,,,0.00,Wunderground v.1.15,2013-01-04 05:05:00,
2013-01-03 23:10:00,15.4,12.0,30.10,WSW,251,4.0,4.0,86,0.00,,,0.00,Wunderground v.1.15,2013-01-04 05:10:00,
2013-01-03 23:15:00,15.2,11.8,30.09,SW,227,4.0,4.0,86,0.00,,,0.00,Wunderground v.1.15,2013-01-04 05:15:00,
2013-01-03 23:20:00,15.4,12.0,30.09,SW,234,5.0,5.0,86,0.00,,,0.00,Wunderground v.1.15,2013-01-04 05:20:00,
2013-01-03 23:25:00,15.4,12.0,30.09,SW,233,5.0,6.0,86,0.00,,,0.00,Wunderground v.1.15,2013-01-04 05:25:00,
2013-01-03 23:35:00,16.2,12.7,30.09,WSW,247,4.0,4.0,86,0.00,,,0.00,Wunderground v.1.15,2013-01-04 05:35:00,
2013-01-03 23:45:00,16.9,13.2,30.08,WSW,241,4.0,5.0,85,0.00,,,0.00,Wunderground v.1.15,2013-01-04 05:45:00,
2013-01-03 23:50:00,17.0,13.0,30.08,WSW,248,4.0,4.0,84,0.00,,,0.00,Wunderground v.1.15,2013-01-04 05:50:00,
2013-01-03 23:55:00,17.2,13.2,30.08,SW,236,5.0,5.0,84,0.00,,,0.00,Wunderground v.1.15,2013-01-04 05:55:00,